sensor_id;sensor_type;location;lat;lon;timestamp;pressure;altitude;pressure_sealevel;temperature;humidity
66381;BME280;53177;52.648;1.214;2022-10-12T00:01:13;101844.13;;;7.78;100.00
66381;BME280;53177;52.648;1.214;2022-10-12T00:03:38;101839.41;;;7.80;100.00
66381;BME280;53177;52.648;1.214;2022-10-12T00:06:13;101845.00;;;7.92;100.00
66381;BME280;53177;52.648;1.214;2022-10-12T00:08:40;101841.06;;;7.94;99.33
66381;BME280;53177;52.648;1.214;2022-10-12T00:11:07;101837.16;;;7.97;99.68
66381;BME280;53177;52.648;1.214;2022-10-12T00:13:33;101843.75;;;7.88;99.56
66381;BME280;53177;52.648;1.214;2022-10-12T00:16:06;101847.59;;;7.72;100.00
66381;BME280;53177;52.648;1.214;2022-10-12T00:18:33;101842.81;;;7.54;100.00
66381;BME280;53177;52.648;1.214;2022-10-12T00:21:03;101838.69;;;7.51;100.00
66381;BME280;53177;52.648;1.214;2022-10-12T00:23:29;101841.16;;;7.46;100.00
66381;BME280;53177;52.648;1.214;2022-10-12T00:25:55;101839.19;;;7.68;100.00
66381;BME280;53177;52.648;1.214;2022-10-12T00:28:20;101839.19;;;7.68;100.00
66381;BME280;53177;52.648;1.214;2022-10-12T00:30:46;101845.75;;;7.72;100.00
66381;BME280;53177;52.648;1.214;2022-10-12T00:33:11;101836.28;;;7.76;100.00
66381;BME280;53177;52.648;1.214;2022-10-12T00:35:37;101833.78;;;7.62;100.00
66381;BME280;53177;52.648;1.214;2022-10-12T00:38:02;101834.19;;;7.58;100.00
66381;BME280;53177;52.648;1.214;2022-10-12T00:40:28;101839.13;;;7.55;100.00
66381;BME280;53177;52.648;1.214;2022-10-12T00:42:54;101839.53;;;7.58;100.00
66381;BME280;53177;52.648;1.214;2022-10-12T00:45:19;101830.06;;;7.56;100.00
66381;BME280;53177;52.648;1.214;2022-10-12T00:47:55;101835.03;;;7.59;100.00
66381;BME280;53177;52.648;1.214;2022-10-12T00:50:29;101837.06;;;7.57;100.00
66381;BME280;53177;52.648;1.214;2022-10-12T00:53:01;101837.50;;;7.60;100.00
66381;BME280;53177;52.648;1.214;2022-10-12T00:55:32;101832.56;;;7.64;100.00
66381;BME280;53177;52.648;1.214;2022-10-12T00:57:59;101821.88;;;7.64;100.00
66381;BME280;53177;52.648;1.214;2022-10-12T01:00:26;101823.09;;;7.55;100.00
66381;BME280;53177;52.648;1.214;2022-10-12T01:02:53;101827.59;;;7.54;100.00
66381;BME280;53177;52.648;1.214;2022-10-12T01:05:20;101827.56;;;7.48;100.00
66381;BME280;53177;52.648;1.214;2022-10-12T01:07:47;101828.19;;;7.50;100.00
66381;BME280;53177;52.648;1.214;2022-10-12T01:10:14;101820.16;;;7.43;100.00
66381;BME280;53177;52.648;1.214;2022-10-12T01:12:41;101822.63;;;7.45;100.00
66381;BME280;53177;52.648;1.214;2022-10-12T01:15:09;101820.16;;;7.43;100.00
66381;BME280;53177;52.648;1.214;2022-10-12T01:20:33;101810.28;;;7.37;100.00
66381;BME280;53177;52.648;1.214;2022-10-12T01:33:58;101813.06;;;7.16;100.00
66381;BME280;53177;52.648;1.214;2022-10-12T01:36:47;101809.34;;;7.17;100.00
66381;BME280;53177;52.648;1.214;2022-10-12T01:39:45;101808.91;;;7.13;100.00
66381;BME280;53177;52.648;1.214;2022-10-12T01:42:18;101805.41;;;7.06;100.00
66381;BME280;53177;52.648;1.214;2022-10-12T01:44:44;101804.97;;;7.02;100.00
66381;BME280;53177;52.648;1.214;2022-10-12T01:47:10;101796.91;;;6.96;100.00
66381;BME280;53177;52.648;1.214;2022-10-12T01:49:36;101788.94;;;7.09;100.00
66381;BME280;53177;52.648;1.214;2022-10-12T01:58:02;101788.28;;;6.94;100.00
66381;BME280;53177;52.648;1.214;2022-10-12T02:00:16;101783.72;;;6.88;100.00
66381;BME280;53177;52.648;1.214;2022-10-12T02:03:11;101780.41;;;6.86;100.00
66381;BME280;53177;52.648;1.214;2022-10-12T02:05:50;101773.88;;;6.95;100.00
66381;BME280;53177;52.648;1.214;2022-10-12T02:11:04;101769.22;;;6.69;100.00
66381;BME280;53177;52.648;1.214;2022-10-12T02:13:35;101772.56;;;6.77;100.00
66381;BME280;53177;52.648;1.214;2022-10-12T02:16:09;101763.13;;;6.81;100.00
66381;BME280;53177;52.648;1.214;2022-10-12T02:18:39;101763.09;;;6.75;100.00
66381;BME280;53177;52.648;1.214;2022-10-12T02:21:08;101763.13;;;6.81;100.00
66381;BME280;53177;52.648;1.214;2022-10-12T02:23:35;101756.59;;;6.91;100.00
66381;BME280;53177;52.648;1.214;2022-10-12T02:26:02;101761.50;;;6.80;100.00
66381;BME280;53177;52.648;1.214;2022-10-12T02:28:31;101753.91;;;6.49;100.00
66381;BME280;53177;52.648;1.214;2022-10-12T02:31:27;101749.63;;;6.55;100.00
66381;BME280;53177;52.648;1.214;2022-10-12T02:33:56;101748.06;;;6.67;100.00
66381;BME280;53177;52.648;1.214;2022-10-12T02:39:14;101746.56;;;6.58;100.00
66381;BME280;53177;52.648;1.214;2022-10-12T02:41:55;101738.31;;;6.53;100.00
66381;BME280;53177;52.648;1.214;2022-10-12T02:44:27;101735.88;;;6.58;100.00
66381;BME280;53177;52.648;1.214;2022-10-12T02:46:55;101730.94;;;6.55;100.00
66381;BME280;53177;52.648;1.214;2022-10-12T02:49:24;101731.41;;;6.65;100.00
66381;BME280;53177;52.648;1.214;2022-10-12T02:51:51;101722.00;;;6.76;100.00
66381;BME280;53177;52.648;1.214;2022-10-12T02:54:17;101718.69;;;6.74;100.00
66381;BME280;53177;52.648;1.214;2022-10-12T02:56:44;101723.38;;;6.65;100.00
66381;BME280;53177;52.648;1.214;2022-10-12T02:59:12;101716.31;;;6.51;100.00
66381;BME280;53177;52.648;1.214;2022-10-12T03:01:38;101712.00;;;6.50;100.00
66381;BME280;53177;52.648;1.214;2022-10-12T03:04:04;101703.84;;;6.58;100.00
66381;BME280;53177;52.648;1.214;2022-10-12T03:06:29;101706.53;;;6.65;100.00
66381;BME280;53177;52.648;1.214;2022-10-12T03:08:55;101703.47;;;6.61;100.00
66381;BME280;53177;52.648;1.214;2022-10-12T03:11:22;101701.94;;;6.45;100.00
66381;BME280;53177;52.648;1.214;2022-10-12T03:13:47;101710.75;;;6.46;100.00
66381;BME280;53177;52.648;1.214;2022-10-12T03:16:12;101704.53;;;6.04;100.00
66381;BME280;53177;52.648;1.214;2022-10-12T03:18:38;101707.78;;;6.27;100.00
66381;BME280;53177;52.648;1.214;2022-10-12T03:21:04;101704.56;;;6.39;100.00
66381;BME280;53177;52.648;1.214;2022-10-12T03:23:30;101701.63;;;6.33;100.00
66381;BME280;53177;52.648;1.214;2022-10-12T03:25:55;101700.59;;;6.00;100.00
66381;BME280;53177;52.648;1.214;2022-10-12T03:28:21;101699.97;;;6.26;100.00
66381;BME280;53177;52.648;1.214;2022-10-12T03:30:46;101696.66;;;5.96;100.00
66381;BME280;53177;52.648;1.214;2022-10-12T03:33:12;101700.34;;;6.23;100.00
66381;BME280;53177;52.648;1.214;2022-10-12T03:35:37;101706.84;;;6.14;100.00
66381;BME280;53177;52.648;1.214;2022-10-12T03:38:03;101709.56;;;6.20;100.00
66381;BME280;53177;52.648;1.214;2022-10-12T03:40:31;101700.50;;;6.15;100.00
66381;BME280;53177;52.648;1.214;2022-10-12T03:42:56;101703.00;;;6.23;100.00
66381;BME280;53177;52.648;1.214;2022-10-12T03:45:22;101697.69;;;5.95;100.00
66381;BME280;53177;52.648;1.214;2022-10-12T03:47:47;101692.78;;;6.26;100.00
66381;BME280;53177;52.648;1.214;2022-10-12T03:50:13;101693.22;;;6.02;100.00
66381;BME280;53177;52.648;1.214;2022-10-12T03:52:39;101691.19;;;6.04;100.00
66381;BME280;53177;52.648;1.214;2022-10-12T03:55:05;101689.19;;;6.13;100.00
66381;BME280;53177;52.648;1.214;2022-10-12T03:57:30;101690.06;;;6.20;100.00
66381;BME280;53177;52.648;1.214;2022-10-12T03:59:56;101692.78;;;6.26;100.00
66381;BME280;53177;52.648;1.214;2022-10-12T04:02:21;101691.75;;;6.27;100.00
66381;BME280;53177;52.648;1.214;2022-10-12T04:04:47;101686.22;;;6.29;100.00
66381;BME280;53177;52.648;1.214;2022-10-12T04:07:12;101691.13;;;6.25;100.00
66381;BME280;53177;52.648;1.214;2022-10-12T04:09:37;101684.91;;;6.18;100.00
66381;BME280;53177;52.648;1.214;2022-10-12T04:12:03;101683.78;;;5.99;100.00
66381;BME280;53177;52.648;1.214;2022-10-12T04:14:28;101685.06;;;5.89;100.00
66381;BME280;53177;52.648;1.214;2022-10-12T04:16:54;101685.91;;;5.89;100.00
66381;BME280;53177;52.648;1.214;2022-10-12T04:19:19;101683.81;;;5.84;100.00
66381;BME280;53177;52.648;1.214;2022-10-12T04:21:45;101689.09;;;5.78;100.00
66381;BME280;53177;52.648;1.214;2022-10-12T04:24:10;101688.41;;;5.69;100.00
66381;BME280;53177;52.648;1.214;2022-10-12T04:26:36;101691.28;;;5.68;100.00
66381;BME280;53177;52.648;1.214;2022-10-12T04:29:01;101689.78;;;5.87;100.00
66381;BME280;53177;52.648;1.214;2022-10-12T04:31:27;101695.66;;;5.97;100.00
66381;BME280;53177;52.648;1.214;2022-10-12T04:33:52;101690.41;;;5.89;100.00
66381;BME280;53177;52.648;1.214;2022-10-12T04:36:24;101686.25;;;5.79;100.00
66381;BME280;53177;52.648;1.214;2022-10-12T04:38:50;101694.06;;;5.81;100.00
66381;BME280;53177;52.648;1.214;2022-10-12T04:41:16;101689.16;;;5.84;100.00
66381;BME280;53177;52.648;1.214;2022-10-12T04:43:42;101687.50;;;5.83;100.00
66381;BME280;53177;52.648;1.214;2022-10-12T04:46:07;101688.97;;;5.86;100.00
66381;BME280;53177;52.648;1.214;2022-10-12T04:48:32;101681.25;;;5.70;100.00
66381;BME280;53177;52.648;1.214;2022-10-12T04:50:58;101692.66;;;5.85;100.00
66381;BME280;53177;52.648;1.214;2022-10-12T04:53:23;101685.63;;;5.77;100.00
66381;BME280;53177;52.648;1.214;2022-10-12T04:55:49;101688.88;;;5.73;100.00
66381;BME280;53177;52.648;1.214;2022-10-12T04:58:14;101684.84;;;5.83;100.00
66381;BME280;53177;52.648;1.214;2022-10-12T05:00:40;101682.88;;;5.92;100.00
66381;BME280;53177;52.648;1.214;2022-10-12T05:03:05;101677.16;;;5.95;100.00
66381;BME280;53177;52.648;1.214;2022-10-12T05:05:30;101682.88;;;5.92;100.00
66381;BME280;53177;52.648;1.214;2022-10-12T05:07:56;101675.81;;;5.84;100.00
66381;BME280;53177;52.648;1.214;2022-10-12T05:10:22;101661.34;;;5.94;100.00
66381;BME280;53177;52.648;1.214;2022-10-12T05:12:47;101662.22;;;5.79;100.00
66381;BME280;53177;52.648;1.214;2022-10-12T05:15:12;101672.03;;;5.72;100.00
66381;BME280;53177;52.648;1.214;2022-10-12T05:17:38;101671.53;;;5.62;100.00
66381;BME280;53177;52.648;1.214;2022-10-12T05:20:04;101676.47;;;5.65;100.00
66381;BME280;53177;52.648;1.214;2022-10-12T05:22:30;101667.97;;;5.76;100.00
66381;BME280;53177;52.648;1.214;2022-10-12T05:24:55;101660.22;;;5.81;100.00
66381;BME280;53177;52.648;1.214;2022-10-12T05:27:21;101653.25;;;5.80;100.00
66381;BME280;53177;52.648;1.214;2022-10-12T05:29:46;101661.75;;;5.69;100.00
66381;BME280;53177;52.648;1.214;2022-10-12T05:32:12;101663.97;;;5.66;100.00
66381;BME280;53177;52.648;1.214;2022-10-12T05:34:37;101648.44;;;5.76;100.00
66381;BME280;53177;52.648;1.214;2022-10-12T05:37:03;101659.09;;;5.69;100.00
66381;BME280;53177;52.648;1.214;2022-10-12T05:39:28;101658.19;;;5.62;100.00
66381;BME280;53177;52.648;1.214;2022-10-12T05:41:53;101649.44;;;5.68;100.00
66381;BME280;53177;52.648;1.214;2022-10-12T05:44:20;101647.94;;;5.59;100.00
66381;BME280;53177;52.648;1.214;2022-10-12T05:46:45;101644.34;;;5.45;100.00
66381;BME280;53177;52.648;1.214;2022-10-12T05:49:10;101637.03;;;5.54;100.00
66381;BME280;53177;52.648;1.214;2022-10-12T05:51:36;101623.81;;;5.67;100.00
66381;BME280;53177;52.648;1.214;2022-10-12T05:54:08;101624.69;;;5.53;100.00
66381;BME280;53177;52.648;1.214;2022-10-12T05:56:34;101626.94;;;5.28;100.00
66381;BME280;53177;52.648;1.214;2022-10-12T05:59:00;101624.97;;;5.15;100.00
66381;BME280;53177;52.648;1.214;2022-10-12T06:01:27;101620.41;;;5.30;100.00
66381;BME280;53177;52.648;1.214;2022-10-12T06:03:55;101625.16;;;5.35;100.00
66381;BME280;53177;52.648;1.214;2022-10-12T06:06:24;101618.25;;;5.19;100.00
66381;BME280;53177;52.648;1.214;2022-10-12T06:08:53;101618.31;;;5.26;100.00
66381;BME280;53177;52.648;1.214;2022-10-12T06:11:21;101616.53;;;5.12;100.00
66381;BME280;53177;52.648;1.214;2022-10-12T06:13:47;101616.88;;;5.23;100.00
66381;BME280;53177;52.648;1.214;2022-10-12T06:16:13;101611.78;;;5.28;100.00
66381;BME280;53177;52.648;1.214;2022-10-12T06:18:39;101609.69;;;5.24;100.00
66381;BME280;53177;52.648;1.214;2022-10-12T06:21:05;101611.69;;;5.22;100.00
66381;BME280;53177;52.648;1.214;2022-10-12T06:23:30;101604.94;;;5.19;100.00
66381;BME280;53177;52.648;1.214;2022-10-12T06:25:55;101596.56;;;5.22;100.00
66381;BME280;53177;52.648;1.214;2022-10-12T06:28:21;101595.41;;;5.31;100.00
66381;BME280;53177;52.648;1.214;2022-10-12T06:30:57;101582.25;;;5.30;100.00
66381;BME280;53177;52.648;1.214;2022-10-12T06:33:23;101582.50;;;5.35;100.00
66381;BME280;53177;52.648;1.214;2022-10-12T06:35:49;101582.34;;;5.37;100.00
66381;BME280;53177;52.648;1.214;2022-10-12T06:38:14;101596.63;;;5.29;100.00
66381;BME280;53177;52.648;1.214;2022-10-12T06:40:40;101595.88;;;5.14;100.00
66381;BME280;53177;52.648;1.214;2022-10-12T06:43:06;101595.66;;;5.15;100.00
66381;BME280;53177;52.648;1.214;2022-10-12T06:45:33;101608.34;;;5.13;100.00
66381;BME280;53177;52.648;1.214;2022-10-12T06:47:59;101608.63;;;5.18;100.00
66381;BME280;53177;52.648;1.214;2022-10-12T06:50:24;101605.97;;;5.18;100.00
66381;BME280;53177;52.648;1.214;2022-10-12T06:52:51;101614.66;;;5.27;100.00
66381;BME280;53177;52.648;1.214;2022-10-12T06:55:17;101614.50;;;5.35;100.00
66381;BME280;53177;52.648;1.214;2022-10-12T06:57:43;101618.50;;;5.46;100.00
66381;BME280;53177;52.648;1.214;2022-10-12T07:00:09;101616.94;;;5.58;100.00
66381;BME280;53177;52.648;1.214;2022-10-12T07:02:35;101611.88;;;5.63;100.00
66381;BME280;53177;52.648;1.214;2022-10-12T07:05:00;101621.41;;;5.51;100.00
66381;BME280;53177;52.648;1.214;2022-10-12T07:07:33;101621.34;;;5.44;100.00
66381;BME280;53177;52.648;1.214;2022-10-12T07:09:59;101617.97;;;5.57;100.00
66381;BME280;53177;52.648;1.214;2022-10-12T07:12:25;101623.84;;;5.74;100.00
66381;BME280;53177;52.648;1.214;2022-10-12T07:14:51;101628.00;;;5.83;100.00
66381;BME280;53177;52.648;1.214;2022-10-12T07:17:16;101626.38;;;5.82;100.00
66381;BME280;53177;52.648;1.214;2022-10-12T07:19:42;101627.41;;;5.88;100.00
66381;BME280;53177;52.648;1.214;2022-10-12T07:22:07;101628.72;;;5.92;100.00
66381;BME280;53177;52.648;1.214;2022-10-12T07:24:32;101620.13;;;5.96;100.00
66381;BME280;53177;52.648;1.214;2022-10-12T07:27:06;101622.22;;;6.01;100.00
66381;BME280;53177;52.648;1.214;2022-10-12T07:29:33;101619.78;;;6.06;100.00
66381;BME280;53177;52.648;1.214;2022-10-12T07:31:59;101625.16;;;6.13;100.00
66381;BME280;53177;52.648;1.214;2022-10-12T07:34:25;101625.84;;;6.21;100.00
66381;BME280;53177;52.648;1.214;2022-10-12T07:36:51;101623.56;;;6.25;100.00
66381;BME280;53177;52.648;1.214;2022-10-12T07:39:16;101629.34;;;6.28;100.00
66381;BME280;53177;52.648;1.214;2022-10-12T07:41:42;101632.44;;;6.32;100.00
66381;BME280;53177;52.648;1.214;2022-10-12T07:44:08;101632.66;;;6.30;100.00
66381;BME280;53177;52.648;1.214;2022-10-12T07:46:33;101624.50;;;6.39;100.00
66381;BME280;53177;52.648;1.214;2022-10-12T07:48:59;101620.78;;;6.40;100.00
66381;BME280;53177;52.648;1.214;2022-10-12T07:51:24;101626.97;;;6.47;100.00
66381;BME280;53177;52.648;1.214;2022-10-12T07:53:50;101617.16;;;6.54;100.00
66381;BME280;53177;52.648;1.214;2022-10-12T07:56:16;101617.97;;;6.54;100.00
66381;BME280;53177;52.648;1.214;2022-10-12T07:58:52;101613.44;;;6.55;100.00
66381;BME280;53177;52.648;1.214;2022-10-12T08:01:19;101617.59;;;6.57;100.00
66381;BME280;53177;52.648;1.214;2022-10-12T08:03:45;101626.19;;;6.59;100.00
66381;BME280;53177;52.648;1.214;2022-10-12T08:06:13;101624.19;;;6.68;100.00
66381;BME280;53177;52.648;1.214;2022-10-12T08:08:39;101625.88;;;6.76;100.00
66381;BME280;53177;52.648;1.214;2022-10-12T08:11:06;101633.28;;;6.80;100.00
66381;BME280;53177;52.648;1.214;2022-10-12T08:13:32;101616.47;;;6.93;100.00
66381;BME280;53177;52.648;1.214;2022-10-12T08:15:58;101619.78;;;7.08;100.00
66381;BME280;53177;52.648;1.214;2022-10-12T08:18:24;101622.88;;;7.25;100.00
66381;BME280;53177;52.648;1.214;2022-10-12T08:20:50;101628.47;;;7.44;100.00
66381;BME280;53177;52.648;1.214;2022-10-12T08:23:16;101620.03;;;7.47;100.00
66381;BME280;53177;52.648;1.214;2022-10-12T08:25:41;101623.94;;;7.51;100.00
66381;BME280;53177;52.648;1.214;2022-10-12T08:28:14;101617.16;;;7.55;100.00
66381;BME280;53177;52.648;1.214;2022-10-12T08:30:40;101617.97;;;7.55;100.00
66381;BME280;53177;52.648;1.214;2022-10-12T08:33:05;101614.06;;;7.58;100.00
66381;BME280;53177;52.648;1.214;2022-10-12T08:35:31;101610.13;;;7.67;100.00
66381;BME280;53177;52.648;1.214;2022-10-12T08:37:56;101600.66;;;7.91;100.00
66381;BME280;53177;52.648;1.214;2022-10-12T08:40:29;101598.94;;;8.17;100.00
66381;BME280;53177;52.648;1.214;2022-10-12T08:45:51;101592.25;;;8.91;100.00
66381;BME280;53177;52.648;1.214;2022-10-12T08:48:22;101593.97;;;9.17;100.00
66381;BME280;53177;52.648;1.214;2022-10-12T08:50:55;101586.84;;;9.29;100.00
66381;BME280;53177;52.648;1.214;2022-10-12T08:53:33;101576.50;;;9.57;100.00
66381;BME280;53177;52.648;1.214;2022-10-12T08:55:59;101590.47;;;9.84;100.00
66381;BME280;53177;52.648;1.214;2022-10-12T08:58:30;101587.59;;;10.04;100.00
66381;BME280;53177;52.648;1.214;2022-10-12T09:01:12;101582.59;;;10.08;100.00
66381;BME280;53177;52.648;1.214;2022-10-12T09:04:44;101589.09;;;10.19;98.46
66381;BME280;53177;52.648;1.214;2022-10-12T09:09:51;101586.56;;;10.24;96.39
66381;BME280;53177;52.648;1.214;2022-10-12T09:12:41;101584.94;;;10.23;96.25
66381;BME280;53177;52.648;1.214;2022-10-12T09:15:22;101578.13;;;10.20;96.71
66381;BME280;53177;52.648;1.214;2022-10-12T09:17:54;101585.75;;;10.23;96.82
66381;BME280;53177;52.648;1.214;2022-10-12T09:20:22;101587.41;;;10.24;96.49
66381;BME280;53177;52.648;1.214;2022-10-12T09:23:05;101585.81;;;10.17;96.28
66381;BME280;53177;52.648;1.214;2022-10-12T09:25:37;101584.16;;;10.16;96.43
66381;BME280;53177;52.648;1.214;2022-10-12T09:28:19;101588.06;;;10.20;96.15
66381;BME280;53177;52.648;1.214;2022-10-12T09:33:44;101585.25;;;10.33;96.18
66381;BME280;53177;52.648;1.214;2022-10-12T09:36:18;101576.06;;;10.41;96.00
66381;BME280;53177;52.648;1.214;2022-10-12T09:38:44;101570.88;;;10.57;96.86
66381;BME280;53177;52.648;1.214;2022-10-12T09:41:19;101576.03;;;10.59;95.18
66381;BME280;53177;52.648;1.214;2022-10-12T09:43:48;101567.50;;;10.62;96.17
66381;BME280;53177;52.648;1.214;2022-10-12T09:46:24;101569.75;;;10.65;95.64
66381;BME280;53177;52.648;1.214;2022-10-12T09:48:58;101566.88;;;10.78;94.28
66381;BME280;53177;52.648;1.214;2022-10-12T09:51:24;101564.75;;;10.80;94.62
66381;BME280;53177;52.648;1.214;2022-10-12T09:53:50;101561.03;;;10.81;94.17
66381;BME280;53177;52.648;1.214;2022-10-12T09:56:25;101571.69;;;10.88;94.47
66381;BME280;53177;52.648;1.214;2022-10-12T09:59:03;101569.25;;;10.86;92.94
66381;BME280;53177;52.648;1.214;2022-10-12T10:01:32;101563.41;;;10.90;93.40
66381;BME280;53177;52.648;1.214;2022-10-12T10:06:37;101560.72;;;10.90;92.31
66381;BME280;53177;52.648;1.214;2022-10-12T10:09:03;101572.06;;;10.92;90.62
66381;BME280;53177;52.648;1.214;2022-10-12T10:11:29;101567.41;;;10.99;90.91
66381;BME280;53177;52.648;1.214;2022-10-12T10:13:59;101561.56;;;11.02;90.26
66381;BME280;53177;52.648;1.214;2022-10-12T10:16:27;101570.09;;;11.10;89.30
66381;BME280;53177;52.648;1.214;2022-10-12T10:21:37;101563.72;;;11.23;87.95
66381;BME280;53177;52.648;1.214;2022-10-12T10:24:26;101557.19;;;11.31;88.12
66381;BME280;53177;52.648;1.214;2022-10-12T10:27:02;101561.28;;;11.45;87.28
66381;BME280;53177;52.648;1.214;2022-10-12T10:29:38;101555.31;;;11.67;85.49
66381;BME280;53177;52.648;1.214;2022-10-12T10:34:39;101554.38;;;11.61;85.34
66381;BME280;53177;52.648;1.214;2022-10-12T10:37:05;101550.28;;;11.58;86.15
66381;BME280;53177;52.648;1.214;2022-10-12T10:39:48;101546.06;;;11.51;86.14
66381;BME280;53177;52.648;1.214;2022-10-12T10:42:19;101557.44;;;11.53;87.66
66381;BME280;53177;52.648;1.214;2022-10-12T10:44:48;101549.47;;;11.58;87.15
66381;BME280;53177;52.648;1.214;2022-10-12T10:47:15;101545.25;;;11.62;86.75
66381;BME280;53177;52.648;1.214;2022-10-12T10:49:44;101552.84;;;11.65;87.68
66381;BME280;53177;52.648;1.214;2022-10-12T10:52:29;101552.13;;;11.70;87.53
66381;BME280;53177;52.648;1.214;2022-10-12T10:57:33;101534.50;;;11.85;87.63
66381;BME280;53177;52.648;1.214;2022-10-12T11:00:08;101532.00;;;11.96;87.59
66381;BME280;53177;52.648;1.214;2022-10-12T11:02:52;101540.19;;;12.01;86.57
66381;BME280;53177;52.648;1.214;2022-10-12T11:05:32;101537.03;;;12.04;86.23
66381;BME280;53177;52.648;1.214;2022-10-12T11:08:03;101535.50;;;12.08;87.35
66381;BME280;53177;52.648;1.214;2022-10-12T11:10:35;101530.72;;;12.10;87.31
66381;BME280;53177;52.648;1.214;2022-10-12T11:13:20;101519.53;;;12.18;86.61
66381;BME280;53177;52.648;1.214;2022-10-12T11:16:21;101524.09;;;12.29;86.97
66381;BME280;53177;52.648;1.214;2022-10-12T11:18:54;101522.41;;;12.40;85.97
66381;BME280;53177;52.648;1.214;2022-10-12T11:21:37;101519.28;;;12.60;86.25
66381;BME280;53177;52.648;1.214;2022-10-12T11:24:30;101510.97;;;12.78;83.99
66381;BME280;53177;52.648;1.214;2022-10-12T11:27:27;101518.06;;;12.84;82.72
66381;BME280;53177;52.648;1.214;2022-10-12T11:30:01;101508.53;;;12.94;81.77
66381;BME280;53177;52.648;1.214;2022-10-12T11:32:40;101501.84;;;12.96;81.90
66381;BME280;53177;52.648;1.214;2022-10-12T11:35:16;101497.25;;;12.97;79.15
66381;BME280;53177;52.648;1.214;2022-10-12T11:37:50;101494.91;;;13.00;80.26
66381;BME280;53177;52.648;1.214;2022-10-12T11:43:20;101473.94;;;13.07;79.94
66381;BME280;53177;52.648;1.214;2022-10-12T11:45:49;101463.06;;;13.19;79.12
66381;BME280;53177;52.648;1.214;2022-10-12T11:48:25;101458.66;;;13.90;77.72
66381;BME280;53177;52.648;1.214;2022-10-12T11:50:53;101439.84;;;14.23;76.68
66381;BME280;53177;52.648;1.214;2022-10-12T11:53:31;101439.13;;;14.32;75.36
66381;BME280;53177;52.648;1.214;2022-10-12T11:56:20;101435.72;;;14.42;76.13
66381;BME280;53177;52.648;1.214;2022-10-12T11:58:50;101438.31;;;14.59;74.53
66381;BME280;53177;52.648;1.214;2022-10-12T12:01:37;101452.44;;;14.66;74.66
66381;BME280;53177;52.648;1.214;2022-10-12T12:04:31;101441.31;;;14.62;73.55
66381;BME280;53177;52.648;1.214;2022-10-12T12:07:05;101440.88;;;14.71;71.79
66381;BME280;53177;52.648;1.214;2022-10-12T12:12:26;101427.28;;;14.98;72.30
66381;BME280;53177;52.648;1.214;2022-10-12T12:22:15;101415.06;;;15.37;71.75
66381;BME280;53177;52.648;1.214;2022-10-12T12:30:03;101396.75;;;15.55;70.84
66381;BME280;53177;52.648;1.214;2022-10-12T12:32:43;101383.69;;;15.41;69.60
66381;BME280;53177;52.648;1.214;2022-10-12T12:35:39;101387.34;;;15.15;70.36
66381;BME280;53177;52.648;1.214;2022-10-12T12:38:18;101385.75;;;15.19;70.23
66381;BME280;53177;52.648;1.214;2022-10-12T12:41:14;101389.66;;;14.96;70.63
66381;BME280;53177;52.648;1.214;2022-10-12T12:46:12;101390.53;;;15.07;74.30
66381;BME280;53177;52.648;1.214;2022-10-12T12:51:05;101397.25;;;15.52;70.71
66381;BME280;53177;52.648;1.214;2022-10-12T12:53:35;101387.31;;;15.10;70.77
66381;BME280;53177;52.648;1.214;2022-10-12T12:56:15;101399.03;;;15.26;71.66
66381;BME280;53177;52.648;1.214;2022-10-12T12:59:16;101383.13;;;15.39;71.58
66381;BME280;53177;52.648;1.214;2022-10-12T13:10:34;101356.03;;;15.39;68.93
66381;BME280;53177;52.648;1.214;2022-10-12T13:15:47;101358.75;;;15.45;67.47
66381;BME280;53177;52.648;1.214;2022-10-12T13:21:19;101357.97;;;15.44;67.80
66381;BME280;53177;52.648;1.214;2022-10-12T13:23:48;101375.63;;;15.62;67.63
66381;BME280;53177;52.648;1.214;2022-10-12T13:26:18;101376.25;;;15.74;69.16
66381;BME280;53177;52.648;1.214;2022-10-12T13:28:48;101379.22;;;15.68;66.97
66381;BME280;53177;52.648;1.214;2022-10-12T13:31:26;101377.38;;;15.31;67.71
66381;BME280;53177;52.648;1.214;2022-10-12T13:34:00;101381.34;;;15.13;69.00
66381;BME280;53177;52.648;1.214;2022-10-12T13:36:31;101371.09;;;15.15;69.92
66381;BME280;53177;52.648;1.214;2022-10-12T13:39:06;101373.78;;;15.10;71.79
66381;BME280;53177;52.648;1.214;2022-10-12T13:41:33;101359.03;;;14.90;70.42
66381;BME280;53177;52.648;1.214;2022-10-12T13:44:01;101359.34;;;14.99;70.26
66381;BME280;53177;52.648;1.214;2022-10-12T13:46:43;101356.84;;;14.82;71.31
66381;BME280;53177;52.648;1.214;2022-10-12T13:51:37;101356.00;;;15.29;69.73
66381;BME280;53177;52.648;1.214;2022-10-12T13:54:17;101353.69;;;15.58;68.08
66381;BME280;53177;52.648;1.214;2022-10-12T13:56:43;101350.72;;;15.60;67.70
66381;BME280;53177;52.648;1.214;2022-10-12T13:59:17;101335.47;;;15.43;68.69
66381;BME280;53177;52.648;1.214;2022-10-12T14:01:59;101332.63;;;15.13;68.73
66381;BME280;53177;52.648;1.214;2022-10-12T14:04:32;101328.81;;;15.09;70.39
66381;BME280;53177;52.648;1.214;2022-10-12T14:07:02;101326.97;;;15.14;69.56
66381;BME280;53177;52.648;1.214;2022-10-12T14:09:38;101326.66;;;15.01;70.19
66381;BME280;53177;52.648;1.214;2022-10-12T14:12:05;101326.03;;;14.88;71.29
66381;BME280;53177;52.648;1.214;2022-10-12T14:14:32;101329.72;;;14.77;71.82
66381;BME280;53177;52.648;1.214;2022-10-12T14:16:58;101336.22;;;14.76;71.17
66381;BME280;53177;52.648;1.214;2022-10-12T14:19:42;101331.88;;;14.70;71.36
66381;BME280;53177;52.648;1.214;2022-10-12T14:22:11;101321.03;;;14.65;72.16
66381;BME280;53177;52.648;1.214;2022-10-12T14:24:37;101323.19;;;14.68;72.41
66381;BME280;53177;52.648;1.214;2022-10-12T14:27:05;101312.34;;;14.63;72.20
66381;BME280;53177;52.648;1.214;2022-10-12T14:34:41;101301.56;;;14.68;73.19